createdAt,value
2023-05-14T00:00:01.864Z,3417.00
2023-05-14T00:01:01.888Z,3449.00
2023-05-14T00:02:01.958Z,3438.00
2023-05-14T00:03:01.919Z,3442.00
2023-05-14T00:04:01.889Z,3450.00
2023-05-14T00:05:01.812Z,3457.00
2023-05-14T00:06:01.803Z,3476.00
2023-05-14T00:07:01.772Z,3473.00
2023-05-14T00:08:01.788Z,3473.00
2023-05-14T00:09:01.760Z,3482.00
2023-05-14T00:10:01.760Z,3491.00
2023-05-14T00:11:01.725Z,3476.00
2023-05-14T00:12:01.689Z,3471.00
2023-05-14T00:13:01.694Z,3464.00
2023-05-14T00:14:01.677Z,3477.00
2023-05-14T00:15:01.668Z,3464.00
2023-05-14T00:16:01.687Z,3462.00
2023-05-14T00:17:01.663Z,3470.00
2023-05-14T00:18:01.731Z,3478.00
2023-05-14T00:19:01.660Z,3490.00
2023-05-14T00:20:01.629Z,3488.00
2023-05-14T00:21:01.568Z,3511.00
2023-05-14T00:22:01.582Z,3500.00
2023-05-14T00:23:01.537Z,3493.00
2023-05-14T00:24:01.583Z,3495.00
2023-05-14T00:25:01.541Z,3493.00
2023-05-14T00:26:01.526Z,3468.00
2023-05-14T00:27:01.538Z,3464.00
2023-05-14T00:28:01.556Z,3466.00
2023-05-14T00:29:01.594Z,3435.00
2023-05-14T00:30:01.612Z,3440.00
2023-05-14T00:31:01.645Z,3459.00
2023-05-14T00:32:01.666Z,3452.00
2023-05-14T00:33:01.833Z,3437.00
2023-05-14T00:34:01.736Z,3422.00
2023-05-14T00:35:01.753Z,3402.00
2023-05-14T00:36:01.812Z,3414.00
2023-05-14T00:37:01.827Z,3401.00
2023-05-14T00:38:01.851Z,3403.00
2023-05-14T00:39:01.921Z,3399.00
2023-05-14T00:40:01.956Z,3419.00
2023-05-14T00:41:01.957Z,3428.00
2023-05-14T00:42:02.025Z,3413.00
2023-05-14T00:43:02.045Z,3417.00
2023-05-14T00:44:02.054Z,3405.00
2023-05-14T00:45:02.100Z,3404.00
2023-05-14T00:46:02.148Z,3377.00
2023-05-14T00:47:02.413Z,3360.00
2023-05-14T00:48:02.220Z,3375.00
2023-05-14T00:49:02.266Z,3387.00
2023-05-14T00:50:02.273Z,3379.00
2023-05-14T00:51:02.289Z,3379.00
2023-05-14T00:52:02.321Z,3369.00
2023-05-14T00:53:02.336Z,3365.00
2023-05-14T00:54:02.368Z,3362.00
2023-05-14T00:55:02.416Z,3354.00
2023-05-14T00:56:02.419Z,3334.00
2023-05-14T00:57:02.489Z,3305.00
2023-05-14T00:58:02.539Z,3305.00
2023-05-14T00:59:02.544Z,3302.00
2023-05-14T01:00:02.578Z,3298.00
2023-05-14T01:01:02.677Z,3279.00
2023-05-14T01:02:02.663Z,3274.00
2023-05-14T01:03:02.730Z,3281.00
2023-05-14T01:04:02.809Z,3261.00
2023-05-14T01:05:02.747Z,3256.00
2023-05-14T01:06:02.794Z,3235.00
2023-05-14T01:07:02.818Z,3222.00
2023-05-14T01:08:02.866Z,3211.00
2023-05-14T01:09:02.911Z,3197.00
2023-05-14T01:10:02.975Z,3184.00
2023-05-14T01:11:02.974Z,3211.00
2023-05-14T01:12:03.005Z,3188.00
2023-05-14T01:13:03.028Z,3189.00
2023-05-14T01:14:03.093Z,3200.00
2023-05-14T01:15:03.126Z,3184.00
2023-05-14T01:16:03.234Z,3165.00
2023-05-14T01:17:03.207Z,3160.00
2023-05-14T01:18:03.241Z,3148.00
2023-05-14T01:19:03.281Z,3138.00
2023-05-14T01:20:03.263Z,3120.00
2023-05-14T01:21:03.333Z,3120.00
2023-05-14T01:22:03.376Z,3121.00
2023-05-14T01:23:03.395Z,3115.00
2023-05-14T01:24:03.409Z,3100.00
2023-05-14T01:25:03.447Z,3114.00
2023-05-14T01:26:03.493Z,3105.00
2023-05-14T01:27:03.508Z,3051.00
2023-05-14T01:28:03.576Z,3058.00
2023-05-14T01:29:03.607Z,3111.00
2023-05-14T01:30:03.638Z,3088.00
2023-05-14T01:31:03.683Z,3090.00
2023-05-14T01:32:03.810Z,3105.00
2023-05-14T01:33:03.784Z,3107.00
2023-05-14T01:34:03.763Z,3095.00
2023-05-14T01:35:03.784Z,3111.00
2023-05-14T01:36:03.823Z,3117.00
2023-05-14T01:37:03.885Z,3132.00
2023-05-14T01:38:03.896Z,3133.00
2023-05-14T01:39:03.926Z,3138.00
2023-05-14T01:40:03.949Z,3145.00
2023-05-14T01:41:04.035Z,3152.00
2023-05-14T01:42:04.031Z,3164.00
2023-05-14T01:43:04.120Z,3172.00
2023-05-14T01:44:04.091Z,3159.00
2023-05-14T01:45:04.136Z,3157.00
2023-05-14T01:46:04.220Z,3180.00
2023-05-14T01:47:04.223Z,3184.00
2023-05-14T01:48:04.267Z,3170.00
2023-05-14T01:49:04.269Z,3175.00
2023-05-14T01:50:04.315Z,3188.00
2023-05-14T01:51:04.341Z,3196.00
2023-05-14T01:52:04.389Z,3197.00
2023-05-14T01:53:04.412Z,3181.00
2023-05-14T01:54:04.445Z,3188.00
2023-05-14T01:55:04.440Z,3166.00
2023-05-14T01:56:04.505Z,3163.00
2023-05-14T01:57:04.533Z,3153.00
2023-05-14T01:58:04.577Z,3159.00
2023-05-14T01:59:04.606Z,3144.00
2023-05-14T02:00:04.677Z,3145.00
2023-05-14T02:01:04.719Z,3139.00
2023-05-14T02:02:04.710Z,3125.00
2023-05-14T02:03:04.764Z,3127.00
2023-05-14T02:04:04.864Z,3120.00
2023-05-14T02:05:06.954Z,3128.00
2023-05-14T02:06:04.830Z,3126.00
2023-05-14T02:07:04.835Z,3123.00
2023-05-14T02:08:04.889Z,3123.00
2023-05-14T02:09:04.925Z,3118.00
2023-05-14T02:10:04.950Z,3131.00
2023-05-14T02:11:04.967Z,3129.00
2023-05-14T02:12:05.017Z,3120.00
2023-05-14T02:13:05.054Z,3126.00
2023-05-14T02:14:05.100Z,3114.00
2023-05-14T02:15:05.102Z,3131.00
2023-05-14T02:16:05.212Z,3134.00
2023-05-14T02:17:05.181Z,3125.00
2023-05-14T02:18:05.274Z,3131.00
2023-05-14T02:19:05.361Z,3139.00
2023-05-14T02:20:05.289Z,3142.00
2023-05-14T02:21:05.319Z,3149.00
2023-05-14T02:22:05.383Z,3155.00
2023-05-14T02:23:05.404Z,3142.00
2023-05-14T02:24:05.447Z,3150.00
2023-05-14T02:25:05.508Z,3150.00
2023-05-14T02:26:05.506Z,3140.00
2023-05-14T02:27:05.546Z,3146.00
2023-05-14T02:28:05.590Z,3145.00
2023-05-14T02:29:05.636Z,3154.00
2023-05-14T02:30:05.662Z,3142.00
2023-05-14T02:31:05.766Z,3136.00
2023-05-14T02:32:05.763Z,3161.00
2023-05-14T02:33:05.818Z,3149.00
2023-05-14T02:34:05.792Z,3151.00
2023-05-14T02:35:05.824Z,3143.00
2023-05-14T02:36:05.826Z,3152.00
2023-05-14T02:37:05.897Z,3151.00
2023-05-14T02:38:05.906Z,3164.00
2023-05-14T02:39:06.759Z,3150.00
2023-05-14T02:40:05.964Z,3146.00
2023-05-14T02:41:05.995Z,3139.00
2023-05-14T02:42:06.056Z,3139.00
2023-05-14T02:43:06.076Z,3135.00
2023-05-14T02:44:06.098Z,3132.00
2023-05-14T02:45:06.139Z,3122.00
2023-05-14T02:46:06.161Z,3112.00
2023-05-14T02:47:06.235Z,3110.00
2023-05-14T02:48:06.364Z,3090.00
2023-05-14T02:49:06.258Z,3079.00
2023-05-14T02:50:06.279Z,3060.00
2023-05-14T02:51:06.315Z,3069.00
2023-05-14T02:52:06.307Z,3025.00
2023-05-14T02:53:06.383Z,3014.00
2023-05-14T02:54:06.432Z,3013.00
2023-05-14T02:55:06.449Z,3017.00
2023-05-14T02:56:06.420Z,3024.00
2023-05-14T02:57:06.478Z,3018.00
2023-05-14T02:58:06.485Z,3022.00
2023-05-14T02:59:06.523Z,2995.00
2023-05-14T03:00:06.593Z,2985.00
2023-05-14T03:01:06.631Z,2994.00
2023-05-14T03:02:06.648Z,2973.00
2023-05-14T03:03:06.694Z,2988.00
2023-05-14T03:04:06.702Z,2974.00
2023-05-14T03:05:06.708Z,2958.00
2023-05-14T03:06:06.738Z,2972.00
2023-05-14T03:07:06.763Z,2960.00
2023-05-14T03:08:06.816Z,2940.00
2023-05-14T03:09:06.811Z,2942.00
2023-05-14T03:10:06.873Z,2954.00
2023-05-14T03:11:06.938Z,2961.00
2023-05-14T03:12:06.954Z,2952.00
2023-05-14T03:13:06.969Z,2943.00
2023-05-14T03:14:07.018Z,2916.00
2023-05-14T03:15:07.047Z,2896.00
2023-05-14T03:16:07.069Z,2905.00
2023-05-14T03:17:07.208Z,2895.00
2023-05-14T03:18:07.182Z,2918.00
2023-05-14T03:19:07.243Z,2904.00
2023-05-14T03:20:07.186Z,2908.00
2023-05-14T03:21:07.246Z,2911.00
2023-05-14T03:22:07.247Z,2914.00
2023-05-14T03:23:07.294Z,2882.00
2023-05-14T03:24:07.365Z,2914.00
2023-05-14T03:25:07.394Z,2915.00
2023-05-14T03:26:07.451Z,2900.00
2023-05-14T03:27:07.479Z,2888.00
2023-05-14T03:28:07.493Z,2889.00
2023-05-14T03:29:07.532Z,2886.00
2023-05-14T03:30:07.543Z,2885.00
2023-05-14T03:31:07.610Z,2877.00
2023-05-14T03:32:07.629Z,2873.00
2023-05-14T03:33:07.682Z,2851.00
2023-05-14T03:34:07.716Z,2837.00
2023-05-14T03:35:07.745Z,2839.00
2023-05-14T03:36:07.774Z,2833.00
2023-05-14T03:37:07.888Z,2826.00
2023-05-14T03:38:07.827Z,2829.00
2023-05-14T03:39:07.868Z,2837.00
2023-05-14T03:40:07.917Z,2840.00
2023-05-14T03:41:07.970Z,2839.00
2023-05-14T03:42:07.943Z,2847.00
2023-05-14T03:43:08.020Z,2847.00
2023-05-14T03:44:08.026Z,2844.00
2023-05-14T03:45:08.089Z,2835.00
2023-05-14T03:46:08.094Z,2843.00
2023-05-14T03:47:08.119Z,2827.00
2023-05-14T03:48:08.363Z,2822.00
2023-05-14T03:49:08.281Z,2803.00
2023-05-14T03:50:08.224Z,2797.00
2023-05-14T03:51:08.240Z,2804.00
2023-05-14T03:52:08.263Z,2823.00
2023-05-14T03:53:08.344Z,2824.00
2023-05-14T03:54:08.387Z,2829.00
2023-05-14T03:55:08.399Z,2822.00
2023-05-14T03:56:08.424Z,2800.00
2023-05-14T03:57:08.440Z,2825.00
2023-05-14T03:58:08.507Z,2824.00
2023-05-14T03:59:08.537Z,2839.00
2023-05-14T04:00:08.530Z,2863.00
2023-05-14T04:01:08.601Z,2862.00
2023-05-14T04:02:08.584Z,2855.00
2023-05-14T04:03:08.734Z,2845.00
2023-05-14T04:04:08.736Z,2839.00
2023-05-14T04:05:08.731Z,2857.00
2023-05-14T04:06:08.718Z,2847.00
2023-05-14T04:07:08.774Z,2845.00
2023-05-14T04:08:08.788Z,2844.00
2023-05-14T04:09:08.852Z,2844.00
2023-05-14T04:10:08.851Z,2844.00
2023-05-14T04:11:08.882Z,2843.00
2023-05-14T04:12:08.890Z,2855.00
2023-05-14T04:13:08.917Z,2850.00
2023-05-14T04:14:08.938Z,2854.00
2023-05-14T04:15:08.971Z,2838.00
2023-05-14T04:16:09.023Z,2842.00
2023-05-14T04:17:09.038Z,2835.00
2023-05-14T04:18:09.115Z,2829.00
2023-05-14T04:19:09.161Z,2837.00
2023-05-14T04:20:09.160Z,2829.00
2023-05-14T04:21:09.173Z,2833.00
2023-05-14T04:22:09.219Z,2829.00
2023-05-14T04:23:09.256Z,2834.00
2023-05-14T04:24:09.246Z,2823.00
2023-05-14T04:25:09.278Z,2807.00
2023-05-14T04:26:09.288Z,2806.00
2023-05-14T04:27:09.306Z,2800.00
2023-05-14T04:28:09.321Z,2792.00
2023-05-14T04:29:09.364Z,2790.00
2023-05-14T04:30:09.362Z,2784.00
2023-05-14T04:31:09.440Z,2779.00
2023-05-14T04:32:09.450Z,2770.00
2023-05-14T04:33:09.599Z,2764.00
2023-05-14T04:34:09.514Z,2757.00
2023-05-14T04:35:09.528Z,2764.00
2023-05-14T04:36:09.543Z,2752.00
2023-05-14T04:37:09.601Z,2770.00
2023-05-14T04:38:09.596Z,2757.00
2023-05-14T04:39:09.678Z,2756.00
2023-05-14T04:40:09.704Z,2753.00
2023-05-14T04:41:09.780Z,2755.00
2023-05-14T04:42:09.752Z,2757.00
2023-05-14T04:43:09.817Z,2750.00
2023-05-14T04:44:09.850Z,2754.00
2023-05-14T04:45:09.892Z,2736.00
2023-05-14T04:46:09.926Z,2739.00
2023-05-14T04:47:09.934Z,2717.00
2023-05-14T04:48:09.978Z,2727.00
2023-05-14T04:49:09.977Z,2727.00
2023-05-14T04:50:10.096Z,2735.00
2023-05-14T04:51:10.046Z,2736.00
2023-05-14T04:52:10.085Z,2730.00
2023-05-14T04:53:10.108Z,2713.00
2023-05-14T04:54:10.164Z,2687.00
2023-05-14T04:55:10.165Z,2684.00
2023-05-14T04:56:10.218Z,2687.00
2023-05-14T04:57:10.262Z,2641.00
2023-05-14T04:58:10.263Z,2629.00
2023-05-14T04:59:10.319Z,2617.00
2023-05-14T05:00:10.350Z,2611.00
2023-05-14T05:01:10.423Z,2620.00
2023-05-14T05:02:10.412Z,2632.00
2023-05-14T05:03:10.497Z,2642.00
2023-05-14T05:04:10.606Z,2648.00
2023-05-14T05:05:10.518Z,2655.00
2023-05-14T05:06:10.514Z,2622.00
2023-05-14T05:07:10.549Z,2607.00
2023-05-14T05:08:10.591Z,2602.00
2023-05-14T05:09:10.638Z,2603.00
2023-05-14T05:10:10.638Z,2601.00
2023-05-14T05:11:10.673Z,2599.00
2023-05-14T05:12:10.731Z,2585.00
2023-05-14T05:13:10.760Z,2569.00
2023-05-14T05:14:10.856Z,2592.00
2023-05-14T05:15:10.845Z,2599.00
2023-05-14T05:16:10.956Z,2600.00
2023-05-14T05:17:10.906Z,2582.00
2023-05-14T05:18:10.964Z,2594.00
2023-05-14T05:19:11.065Z,2565.00
2023-05-14T05:20:11.052Z,2582.00
2023-05-14T05:21:11.095Z,2585.00
2023-05-14T05:22:11.110Z,2575.00
2023-05-14T05:23:11.152Z,2579.00
2023-05-14T05:24:11.260Z,2574.00
2023-05-14T05:25:11.223Z,2590.00
2023-05-14T05:26:11.277Z,2605.00
2023-05-14T05:27:11.283Z,2611.00
2023-05-14T05:28:11.357Z,2618.00
2023-05-14T05:29:11.398Z,2622.00
2023-05-14T05:30:11.400Z,2599.00
2023-05-14T05:31:11.497Z,2616.00
2023-05-14T05:32:11.489Z,2619.00
2023-05-14T05:33:11.558Z,2623.00
2023-05-14T05:34:11.568Z,2598.00
2023-05-14T05:35:11.577Z,2608.00
2023-05-14T05:36:11.648Z,2597.00
2023-05-14T05:37:11.645Z,2579.00
2023-05-14T05:38:11.666Z,2556.00
2023-05-14T05:39:11.735Z,2530.00
2023-05-14T05:40:11.792Z,2516.00
2023-05-14T05:41:11.809Z,2537.00
2023-05-14T05:42:11.824Z,2536.00
2023-05-14T05:43:11.905Z,2542.00
2023-05-14T05:44:11.928Z,2525.00
2023-05-14T05:45:11.982Z,2543.00
2023-05-14T05:46:12.072Z,2546.00
2023-05-14T05:47:12.030Z,2525.00
2023-05-14T05:48:12.050Z,2500.00
2023-05-14T05:49:12.095Z,2488.00
2023-05-14T05:50:12.149Z,2508.00
2023-05-14T05:51:12.176Z,2512.00
2023-05-14T05:52:12.822Z,2507.00
2023-05-14T05:53:12.234Z,2487.00
2023-05-14T05:54:12.281Z,2489.00
2023-05-14T05:55:12.328Z,2469.00
2023-05-14T05:56:12.366Z,2479.00
2023-05-14T05:57:12.407Z,2478.00
2023-05-14T05:58:12.432Z,2499.00
2023-05-14T05:59:12.497Z,2474.00
2023-05-14T06:00:12.530Z,2472.00
2023-05-14T06:01:12.539Z,2469.00
2023-05-14T06:02:12.663Z,2465.00
2023-05-14T06:03:12.630Z,2471.00
2023-05-14T06:04:12.682Z,2467.00
2023-05-14T06:05:12.755Z,2474.00
2023-05-14T06:06:12.784Z,2477.00
2023-05-14T06:07:12.801Z,2467.00
2023-05-14T06:08:12.878Z,2472.00
2023-05-14T06:09:12.903Z,2475.00
2023-05-14T06:10:12.908Z,2479.00
2023-05-14T06:11:12.943Z,2482.00
2023-05-14T06:12:13.007Z,2477.00
2023-05-14T06:13:13.034Z,2457.00
2023-05-14T06:14:13.074Z,2464.00
2023-05-14T06:15:13.116Z,2456.00
2023-05-14T06:16:13.178Z,2453.00
2023-05-14T06:17:13.227Z,2461.00
2023-05-14T06:18:13.204Z,2469.00
2023-05-14T06:19:13.367Z,2461.00
2023-05-14T06:20:13.306Z,2441.00
2023-05-14T06:21:13.375Z,2433.00
2023-05-14T06:22:13.400Z,2436.00
2023-05-14T06:23:13.460Z,2416.00
2023-05-14T06:24:13.460Z,2414.00
2023-05-14T06:25:13.480Z,2367.00
2023-05-14T06:26:13.566Z,2335.00
2023-05-14T06:27:13.625Z,2341.00
2023-05-14T06:28:13.624Z,2334.00
2023-05-14T06:29:13.641Z,2336.00
2023-05-14T06:30:13.691Z,2325.00
2023-05-14T06:31:13.720Z,2326.00
2023-05-14T06:32:13.862Z,2285.00
2023-05-14T06:33:13.776Z,2262.00
2023-05-14T06:34:13.846Z,2233.00
2023-05-14T06:35:13.871Z,2232.00
2023-05-14T06:36:13.893Z,2188.00
2023-05-14T06:37:13.948Z,2175.00
2023-05-14T06:38:13.988Z,2180.00
2023-05-14T06:39:14.029Z,2214.00
2023-05-14T06:40:14.082Z,2244.00
2023-05-14T06:41:14.083Z,2261.00
2023-05-14T06:42:14.158Z,2281.00
2023-05-14T06:43:14.160Z,2267.00
2023-05-14T06:44:14.186Z,2250.00
2023-05-14T06:45:14.246Z,2277.00
2023-05-14T06:46:14.286Z,2275.00
2023-05-14T06:47:14.286Z,2284.00
2023-05-14T06:48:14.399Z,2284.00
2023-05-14T06:49:14.454Z,2256.00
2023-05-14T06:50:14.412Z,2263.00
2023-05-14T06:51:14.424Z,2246.00
2023-05-14T06:52:14.475Z,2240.00
2023-05-14T06:53:14.484Z,2232.00
2023-05-14T06:54:14.495Z,2234.00
2023-05-14T06:55:14.553Z,2247.00
2023-05-14T06:56:14.573Z,2264.00
2023-05-14T06:57:14.623Z,2242.00
2023-05-14T06:58:14.678Z,2239.00
2023-05-14T06:59:14.677Z,2221.00
2023-05-14T07:00:14.699Z,2210.00
2023-05-14T07:01:14.746Z,2199.00
2023-05-14T07:02:14.726Z,2207.00
2023-05-14T07:03:14.763Z,2207.00
2023-05-14T07:04:14.885Z,2218.00
2023-05-14T07:05:14.863Z,2252.00
2023-05-14T07:06:14.889Z,2251.00
2023-05-14T07:07:14.899Z,2241.00
2023-05-14T07:08:14.918Z,2248.00
2023-05-14T07:09:14.936Z,2224.00
2023-05-14T07:10:14.977Z,2182.00
2023-05-14T07:11:15.032Z,2161.00
2023-05-14T07:12:15.036Z,2141.00
2023-05-14T07:13:15.052Z,2164.00
2023-05-14T07:14:15.062Z,2163.00
2023-05-14T07:15:15.107Z,2156.00
2023-05-14T07:16:15.142Z,2094.00
2023-05-14T07:17:15.241Z,2068.00
2023-05-14T07:18:15.273Z,2041.00
2023-05-14T07:19:15.401Z,2076.00
2023-05-14T07:20:15.261Z,2113.00
2023-05-14T07:21:15.294Z,2119.00
2023-05-14T07:22:15.349Z,2136.00
2023-05-14T07:23:15.810Z,2162.00
2023-05-14T07:24:15.380Z,2151.00
2023-05-14T07:25:15.395Z,2155.00
2023-05-14T07:26:15.407Z,2162.00
2023-05-14T07:27:15.466Z,2159.00
2023-05-14T07:28:15.451Z,2156.00
2023-05-14T07:29:15.530Z,2165.00
2023-05-14T07:30:15.557Z,2143.00
2023-05-14T07:31:15.586Z,2155.00
2023-05-14T07:32:15.850Z,2168.00
2023-05-14T07:33:15.588Z,2173.00
2023-05-14T07:34:15.659Z,2193.00
2023-05-14T07:35:15.646Z,2186.00
2023-05-14T07:36:16.358Z,2195.00
2023-05-14T07:37:15.688Z,2188.00
2023-05-14T07:38:15.721Z,2166.00
2023-05-14T07:39:15.765Z,2156.00
2023-05-14T07:40:15.751Z,2128.00
2023-05-14T07:41:15.797Z,2114.00
2023-05-14T07:42:28.032Z,2130.00
2023-05-14T07:43:16.769Z,2131.00
2023-05-14T07:44:15.745Z,2132.00
2023-05-14T07:45:15.723Z,2143.00
2023-05-14T07:46:15.743Z,2161.00
2023-05-14T07:47:15.721Z,2191.00
2023-05-14T07:48:15.802Z,2188.00
2023-05-14T07:49:15.666Z,2176.00
2023-05-14T07:50:15.663Z,2151.00
2023-05-14T07:51:15.723Z,2141.00
2023-05-14T07:52:15.653Z,2158.00
2023-05-14T07:53:15.655Z,2155.00
2023-05-14T07:54:15.591Z,2174.00
2023-05-14T07:55:15.630Z,2168.00
2023-05-14T07:56:15.642Z,2164.00
2023-05-14T07:57:15.603Z,2165.00
2023-05-14T07:58:15.556Z,2177.00
2023-05-14T07:59:15.539Z,2180.00
2023-05-14T08:00:15.516Z,2186.00
2023-05-14T08:01:15.532Z,2177.00
2023-05-14T08:02:15.672Z,2120.00
2023-05-14T08:03:15.710Z,2078.00
2023-05-14T08:04:15.650Z,2090.00
2023-05-14T08:05:15.632Z,2100.00
2023-05-14T08:06:15.649Z,2147.00
2023-05-14T08:07:15.646Z,2178.00
2023-05-14T08:08:15.661Z,2182.00
2023-05-14T08:09:15.682Z,2176.00
2023-05-14T08:10:15.668Z,2163.00
2023-05-14T08:11:15.789Z,2181.00
2023-05-14T08:12:15.717Z,2132.00
2023-05-14T08:13:15.719Z,2098.00
2023-05-14T08:14:15.728Z,2065.00
2023-05-14T08:15:15.784Z,2089.00
2023-05-14T08:16:15.852Z,2090.00
2023-05-14T08:17:15.946Z,2113.00
2023-05-14T08:18:15.841Z,2117.00
2023-05-14T08:19:15.871Z,2070.00
2023-05-14T08:20:15.875Z,2045.00
2023-05-14T08:21:15.875Z,2059.00
2023-05-14T08:22:15.918Z,2086.00
2023-05-14T08:23:15.914Z,2075.00
2023-05-14T08:24:15.938Z,2057.00
2023-05-14T08:25:15.978Z,2021.00
2023-05-14T08:26:15.973Z,2039.00
2023-05-14T08:27:15.960Z,2052.00
2023-05-14T08:28:16.008Z,2080.00
2023-05-14T08:29:16.707Z,2090.00
2023-05-14T08:30:16.033Z,2097.00
2023-05-14T08:31:16.078Z,2086.00
2023-05-14T08:32:23.458Z,2048.00
2023-05-14T08:33:17.102Z,2048.00
2023-05-14T08:34:15.997Z,2041.00
2023-05-14T08:35:15.988Z,2051.00
2023-05-14T08:36:15.991Z,2053.00
2023-05-14T08:37:15.959Z,2070.00
2023-05-14T08:38:15.949Z,2041.00
2023-05-14T08:39:15.958Z,2042.00
2023-05-14T08:40:15.931Z,2015.00
2023-05-14T08:41:15.915Z,2028.00
2023-05-14T08:42:15.897Z,1949.00
2023-05-14T08:43:15.891Z,1823.00
2023-05-14T08:44:15.880Z,1797.00
2023-05-14T08:45:15.845Z,1840.00
2023-05-14T08:46:15.881Z,1827.00
2023-05-14T08:47:15.833Z,1825.00
2023-05-14T08:48:15.926Z,1835.00
2023-05-14T08:49:15.823Z,1805.00
2023-05-14T08:50:15.806Z,1804.00
2023-05-14T08:51:15.783Z,1756.00
2023-05-14T08:52:15.815Z,1768.00
2023-05-14T08:53:15.751Z,1815.00
2023-05-14T08:54:15.737Z,1825.00
2023-05-14T08:55:15.714Z,1841.00
2023-05-14T08:56:15.690Z,1826.00
2023-05-14T08:57:15.683Z,1796.00
2023-05-14T08:58:15.676Z,1802.00
2023-05-14T08:59:15.725Z,1768.00
2023-05-14T09:00:15.707Z,1755.00
2023-05-14T09:01:15.772Z,1741.00
2023-05-14T09:02:15.737Z,1740.00
2023-05-14T09:03:15.902Z,1720.00
2023-05-14T09:04:15.805Z,1704.00
2023-05-14T09:05:15.742Z,1704.00
2023-05-14T09:06:15.753Z,1722.00
2023-05-14T09:07:15.760Z,1718.00
2023-05-14T09:08:15.749Z,1720.00
2023-05-14T09:09:15.779Z,1709.00
2023-05-14T09:10:15.792Z,1726.00
2023-05-14T09:11:15.786Z,1663.00
2023-05-14T09:12:15.806Z,1607.00
2023-05-14T09:13:15.807Z,1622.00
2023-05-14T09:14:15.796Z,1614.00
2023-05-14T09:15:15.791Z,1601.00
2023-05-14T09:16:15.853Z,1528.00
2023-05-14T09:17:15.841Z,1541.00
2023-05-14T09:18:15.875Z,1562.00
2023-05-14T09:19:16.207Z,1539.00
2023-05-14T09:20:15.877Z,1497.00
2023-05-14T09:21:15.881Z,1480.00
2023-05-14T09:22:15.877Z,1471.00
2023-05-14T09:23:15.913Z,1428.00
2023-05-14T09:24:15.884Z,1425.00
2023-05-14T09:25:15.898Z,1446.00
2023-05-14T09:26:15.919Z,1429.00
2023-05-14T09:27:15.912Z,1460.00
2023-05-14T09:28:15.889Z,1460.00
2023-05-14T09:29:15.904Z,1480.00
2023-05-14T09:30:15.939Z,1481.00
2023-05-14T09:31:15.935Z,1493.00
2023-05-14T09:32:15.926Z,1507.00
2023-05-14T09:33:15.945Z,1490.00
2023-05-14T09:34:15.937Z,1501.00
2023-05-14T09:35:15.941Z,1434.00
2023-05-14T09:36:15.895Z,1428.00
2023-05-14T09:37:15.916Z,1436.00
2023-05-14T09:38:15.960Z,1451.00
2023-05-14T09:39:15.915Z,1445.00
2023-05-14T09:40:15.904Z,1461.00
2023-05-14T09:41:15.924Z,1462.00
2023-05-14T09:42:15.929Z,1443.00
2023-05-14T09:43:15.914Z,1423.00
2023-05-14T09:44:15.913Z,1379.00
2023-05-14T09:45:15.908Z,1392.00
2023-05-14T09:46:15.915Z,1346.00
2023-05-14T09:47:15.950Z,1318.00
2023-05-14T09:48:15.923Z,1307.00
2023-05-14T09:49:15.910Z,1301.00
2023-05-14T09:50:15.936Z,1319.00
2023-05-14T09:51:15.897Z,1335.00
2023-05-14T09:52:15.900Z,1349.00
2023-05-14T09:53:15.894Z,1333.00
2023-05-14T09:54:15.924Z,1372.00
2023-05-14T09:55:15.913Z,1387.00
2023-05-14T09:56:15.878Z,1390.00
2023-05-14T09:57:15.877Z,1379.00
2023-05-14T09:58:15.881Z,1367.00
2023-05-14T09:59:15.867Z,1377.00
2023-05-14T10:00:15.901Z,1382.00
2023-05-14T10:01:15.895Z,1370.00
2023-05-14T10:02:15.886Z,1323.00
2023-05-14T10:03:17.987Z,1316.00
2023-05-14T10:04:15.866Z,1338.00
2023-05-14T10:05:15.860Z,1346.00
2023-05-14T10:06:15.793Z,1286.00
2023-05-14T10:07:15.787Z,1251.00
2023-05-14T10:08:15.759Z,1249.00
2023-05-14T10:09:15.768Z,1268.00
2023-05-14T10:10:15.756Z,1277.00
2023-05-14T10:11:15.720Z,1272.00
2023-05-14T10:12:15.682Z,1279.00
2023-05-14T10:13:15.662Z,1241.00
2023-05-14T10:14:15.621Z,1269.00
2023-05-14T10:15:15.640Z,1280.00
2023-05-14T10:16:15.613Z,1227.00
2023-05-14T10:17:15.604Z,1206.00
2023-05-14T10:18:15.602Z,1215.00
2023-05-14T10:19:15.557Z,1232.00
2023-05-14T10:20:15.544Z,1259.00
2023-05-14T10:21:15.516Z,1249.00
2023-05-14T10:22:15.468Z,1171.00
2023-05-14T10:23:15.444Z,1170.00
2023-05-14T10:24:15.438Z,1170.00
2023-05-14T10:25:15.418Z,1143.00
2023-05-14T10:26:15.354Z,1093.00
2023-05-14T10:27:15.388Z,1083.00
2023-05-14T10:28:15.346Z,1074.00
2023-05-14T10:29:15.302Z,1097.00
2023-05-14T10:30:15.321Z,1063.00
2023-05-14T10:31:15.279Z,1060.00
2023-05-14T10:32:15.225Z,1033.00
2023-05-14T10:33:15.314Z,1053.00
2023-05-14T10:34:15.189Z,1012.00
2023-05-14T10:35:15.192Z,954.00
2023-05-14T10:36:15.136Z,977.00
2023-05-14T10:37:15.135Z,981.00
2023-05-14T10:38:15.113Z,975.00
2023-05-14T10:39:15.075Z,964.00
2023-05-14T10:40:15.086Z,937.00
2023-05-14T10:41:15.030Z,978.00
2023-05-14T10:42:15.022Z,1026.00
2023-05-14T10:43:15.008Z,987.00
2023-05-14T10:44:14.995Z,949.00
2023-05-14T10:45:14.931Z,988.00
2023-05-14T10:46:15.000Z,1006.00
2023-05-14T10:47:14.934Z,1035.00
2023-05-14T10:48:14.930Z,1054.00
2023-05-14T10:49:14.860Z,1053.00
2023-05-14T10:50:14.839Z,1083.00
2023-05-14T10:51:14.841Z,1102.00
2023-05-14T10:52:14.807Z,1080.00
2023-05-14T10:53:14.791Z,1071.00
2023-05-14T10:54:14.769Z,1052.00
2023-05-14T10:55:14.748Z,1019.00
2023-05-14T10:56:14.737Z,961.00
2023-05-14T10:57:14.684Z,991.00
2023-05-14T10:58:14.710Z,998.00
2023-05-14T10:59:14.672Z,1034.00
2023-05-14T11:00:14.743Z,1065.00
2023-05-14T11:01:14.629Z,1058.00
2023-05-14T11:02:14.700Z,1092.00
2023-05-14T11:03:14.655Z,1088.00
2023-05-14T11:04:14.597Z,1075.00
2023-05-14T11:05:14.573Z,1008.00
2023-05-14T11:06:14.514Z,1037.00
2023-05-14T11:07:14.529Z,1036.00
2023-05-14T11:08:14.520Z,1052.00
2023-05-14T11:09:14.525Z,1044.00
2023-05-14T11:10:14.459Z,1024.00
2023-05-14T11:11:14.463Z,1016.00
2023-05-14T11:12:14.453Z,980.00
2023-05-14T11:13:14.413Z,1026.00
2023-05-14T11:14:14.359Z,1038.00
2023-05-14T11:15:14.364Z,1060.00
2023-05-14T11:16:22.581Z,1062.00
2023-05-14T11:17:15.490Z,1064.00
2023-05-14T11:18:14.299Z,1069.00
2023-05-14T11:19:14.316Z,1076.00
2023-05-14T11:20:14.254Z,1076.00
2023-05-14T11:21:14.230Z,1066.00
2023-05-14T11:22:14.261Z,1076.00
2023-05-14T11:23:14.178Z,1049.00
2023-05-14T11:24:14.145Z,1081.00
2023-05-14T11:25:14.109Z,1067.00
2023-05-14T11:26:14.159Z,1054.00
2023-05-14T11:27:14.052Z,1070.00
2023-05-14T11:28:14.031Z,1076.00
2023-05-14T11:29:14.040Z,1027.00
2023-05-14T11:30:13.992Z,1016.00
2023-05-14T11:31:14.013Z,1040.00
2023-05-14T11:32:13.976Z,1013.00
2023-05-14T11:33:13.964Z,1039.00
2023-05-14T11:34:13.916Z,1024.00
2023-05-14T11:35:13.933Z,1033.00
2023-05-14T11:36:13.874Z,1076.00
2023-05-14T11:37:13.876Z,1091.00
2023-05-14T11:38:13.876Z,1124.00
2023-05-14T11:39:13.869Z,1112.00
2023-05-14T11:40:13.888Z,1117.00
2023-05-14T11:41:13.873Z,1074.00
2023-05-14T11:42:13.848Z,1087.00
2023-05-14T11:43:13.861Z,1067.00
2023-05-14T11:44:13.867Z,1029.00
2023-05-14T11:45:13.875Z,1040.00
2023-05-14T11:46:13.942Z,1048.00
2023-05-14T11:47:13.845Z,1049.00
2023-05-14T11:48:13.964Z,1078.00
2023-05-14T11:49:13.932Z,1031.00
2023-05-14T11:50:13.867Z,1064.00
2023-05-14T11:51:13.905Z,1054.00
2023-05-14T11:52:13.858Z,996.00
2023-05-14T11:53:13.939Z,925.00
2023-05-14T11:54:13.886Z,889.00
2023-05-14T11:55:13.907Z,927.00
2023-05-14T11:56:13.871Z,947.00
2023-05-14T11:57:13.874Z,957.00
2023-05-14T11:58:13.865Z,983.00
2023-05-14T11:59:13.887Z,988.00
2023-05-14T12:00:13.868Z,1028.00
2023-05-14T12:01:13.845Z,1084.00
2023-05-14T12:02:13.868Z,1130.00
2023-05-14T12:03:13.946Z,1167.00
2023-05-14T12:04:13.887Z,1148.00
2023-05-14T12:05:13.835Z,1182.00
2023-05-14T12:06:13.853Z,1175.00